sensor_id;sensor_type;location;lat;lon;timestamp;P1;durP1;ratioP1;P2;durP2;ratioP2
73283;SDS011;61519;60.050;18.582;2022-12-01T00:08:38;25.80;;;12.67;;
73283;SDS011;61519;60.050;18.582;2022-12-01T00:11:05;24.92;;;12.95;;
73283;SDS011;61519;60.050;18.582;2022-12-01T00:13:37;25.08;;;12.45;;
73283;SDS011;61519;60.050;18.582;2022-12-01T00:35:13;23.08;;;13.15;;
73283;SDS011;61519;60.050;18.582;2022-12-01T00:41:52;28.50;;;12.43;;
73283;SDS011;61519;60.050;18.582;2022-12-01T01:05:26;19.70;;;10.03;;
73283;SDS011;61519;60.050;18.582;2022-12-01T01:37:05;18.65;;;9.07;;
73283;SDS011;61519;60.050;18.582;2022-12-01T02:30:06;18.48;;;5.72;;
73283;SDS011;61519;60.050;18.582;2022-12-01T04:27:45;6.77;;;3.03;;
73283;SDS011;61519;60.050;18.582;2022-12-01T04:34:14;6.78;;;3.17;;
73283;SDS011;61519;60.050;18.582;2022-12-01T04:37:43;6.07;;;2.92;;
73283;SDS011;61519;60.050;18.582;2022-12-01T04:40:56;6.63;;;3.10;;
73283;SDS011;61519;60.050;18.582;2022-12-01T04:44:08;6.55;;;2.90;;
73283;SDS011;61519;60.050;18.582;2022-12-01T04:47:23;6.65;;;3.03;;
73283;SDS011;61519;60.050;18.582;2022-12-01T05:01:16;6.65;;;3.08;;
73283;SDS011;61519;60.050;18.582;2022-12-01T05:08:09;7.13;;;3.17;;
73283;SDS011;61519;60.050;18.582;2022-12-01T05:24:38;9.73;;;5.38;;
73283;SDS011;61519;60.050;18.582;2022-12-01T05:34:36;8.97;;;4.70;;
73283;SDS011;61519;60.050;18.582;2022-12-01T05:37:40;7.78;;;4.63;;
73283;SDS011;61519;60.050;18.582;2022-12-01T05:40:25;7.75;;;4.40;;
73283;SDS011;61519;60.050;18.582;2022-12-01T05:42:50;7.00;;;3.72;;
73283;SDS011;61519;60.050;18.582;2022-12-01T05:45:22;7.87;;;4.30;;
73283;SDS011;61519;60.050;18.582;2022-12-01T05:47:48;6.93;;;3.90;;
73283;SDS011;61519;60.050;18.582;2022-12-01T05:50:20;8.18;;;3.70;;
73283;SDS011;61519;60.050;18.582;2022-12-01T05:52:46;8.23;;;4.33;;
73283;SDS011;61519;60.050;18.582;2022-12-01T05:55:11;7.20;;;3.75;;
73283;SDS011;61519;60.050;18.582;2022-12-01T05:57:37;5.97;;;3.40;;
73283;SDS011;61519;60.050;18.582;2022-12-01T06:00:03;5.67;;;2.93;;
73283;SDS011;61519;60.050;18.582;2022-12-01T06:02:29;6.28;;;3.00;;
73283;SDS011;61519;60.050;18.582;2022-12-01T06:04:55;6.27;;;3.27;;
73283;SDS011;61519;60.050;18.582;2022-12-01T06:07:20;6.10;;;3.40;;
73283;SDS011;61519;60.050;18.582;2022-12-01T06:09:47;5.80;;;2.88;;
73283;SDS011;61519;60.050;18.582;2022-12-01T06:12:13;5.97;;;2.90;;
73283;SDS011;61519;60.050;18.582;2022-12-01T06:14:38;7.10;;;2.70;;
73283;SDS011;61519;60.050;18.582;2022-12-01T06:17:04;5.87;;;2.90;;
73283;SDS011;61519;60.050;18.582;2022-12-01T06:19:29;5.40;;;2.60;;
73283;SDS011;61519;60.050;18.582;2022-12-01T06:21:55;5.28;;;2.63;;
73283;SDS011;61519;60.050;18.582;2022-12-01T06:24:21;5.38;;;2.70;;
73283;SDS011;61519;60.050;18.582;2022-12-01T06:26:47;5.43;;;2.50;;
73283;SDS011;61519;60.050;18.582;2022-12-01T06:29:12;5.63;;;2.40;;
73283;SDS011;61519;60.050;18.582;2022-12-01T06:31:38;6.53;;;3.28;;
73283;SDS011;61519;60.050;18.582;2022-12-01T06:34:04;6.18;;;3.30;;
73283;SDS011;61519;60.050;18.582;2022-12-01T06:36:29;5.40;;;2.78;;
73283;SDS011;61519;60.050;18.582;2022-12-01T06:38:55;6.40;;;2.90;;
73283;SDS011;61519;60.050;18.582;2022-12-01T06:41:21;8.32;;;4.30;;
73283;SDS011;61519;60.050;18.582;2022-12-01T06:43:46;8.43;;;3.80;;
73283;SDS011;61519;60.050;18.582;2022-12-01T06:46:12;8.52;;;4.65;;
73283;SDS011;61519;60.050;18.582;2022-12-01T06:48:37;9.13;;;4.70;;
73283;SDS011;61519;60.050;18.582;2022-12-01T06:51:03;6.70;;;3.70;;
73283;SDS011;61519;60.050;18.582;2022-12-01T06:53:30;9.15;;;3.35;;
73283;SDS011;61519;60.050;18.582;2022-12-01T06:55:59;5.45;;;2.65;;
73283;SDS011;61519;60.050;18.582;2022-12-01T06:58:25;6.03;;;2.83;;
73283;SDS011;61519;60.050;18.582;2022-12-01T07:00:51;5.20;;;2.70;;
73283;SDS011;61519;60.050;18.582;2022-12-01T07:03:17;5.57;;;2.83;;
73283;SDS011;61519;60.050;18.582;2022-12-01T07:05:42;5.57;;;2.97;;
73283;SDS011;61519;60.050;18.582;2022-12-01T07:08:09;6.00;;;2.45;;
73283;SDS011;61519;60.050;18.582;2022-12-01T07:10:36;5.03;;;2.07;;
73283;SDS011;61519;60.050;18.582;2022-12-01T07:13:02;5.30;;;2.88;;
73283;SDS011;61519;60.050;18.582;2022-12-01T07:15:27;6.17;;;3.03;;
73283;SDS011;61519;60.050;18.582;2022-12-01T07:17:53;5.77;;;3.00;;
73283;SDS011;61519;60.050;18.582;2022-12-01T07:20:18;8.50;;;3.00;;
73283;SDS011;61519;60.050;18.582;2022-12-01T07:22:43;6.67;;;3.10;;
73283;SDS011;61519;60.050;18.582;2022-12-01T07:25:09;6.00;;;2.87;;
73283;SDS011;61519;60.050;18.582;2022-12-01T07:27:34;6.03;;;3.07;;
73283;SDS011;61519;60.050;18.582;2022-12-01T07:30:00;6.40;;;3.33;;
73283;SDS011;61519;60.050;18.582;2022-12-01T07:32:25;6.40;;;2.95;;
73283;SDS011;61519;60.050;18.582;2022-12-01T07:34:51;7.97;;;2.90;;
73283;SDS011;61519;60.050;18.582;2022-12-01T07:37:16;6.57;;;3.20;;
73283;SDS011;61519;60.050;18.582;2022-12-01T07:39:42;5.90;;;3.03;;
73283;SDS011;61519;60.050;18.582;2022-12-01T07:42:07;5.90;;;3.20;;
73283;SDS011;61519;60.050;18.582;2022-12-01T07:44:33;7.20;;;3.53;;
73283;SDS011;61519;60.050;18.582;2022-12-01T07:46:58;8.20;;;3.80;;
73283;SDS011;61519;60.050;18.582;2022-12-01T07:49:23;7.87;;;4.10;;
73283;SDS011;61519;60.050;18.582;2022-12-01T07:51:49;11.73;;;4.20;;
73283;SDS011;61519;60.050;18.582;2022-12-01T07:54:14;12.43;;;4.82;;
73283;SDS011;61519;60.050;18.582;2022-12-01T07:56:41;9.30;;;4.78;;
73283;SDS011;61519;60.050;18.582;2022-12-01T07:59:07;8.40;;;4.15;;
73283;SDS011;61519;60.050;18.582;2022-12-01T08:01:32;8.03;;;3.37;;
73283;SDS011;61519;60.050;18.582;2022-12-01T08:03:58;6.73;;;3.33;;
73283;SDS011;61519;60.050;18.582;2022-12-01T08:06:24;7.38;;;3.60;;
73283;SDS011;61519;60.050;18.582;2022-12-01T08:08:50;7.17;;;3.20;;
73283;SDS011;61519;60.050;18.582;2022-12-01T08:11:20;7.07;;;3.70;;
73283;SDS011;61519;60.050;18.582;2022-12-01T08:13:47;9.52;;;3.83;;
73283;SDS011;61519;60.050;18.582;2022-12-01T08:16:14;6.55;;;3.17;;
73283;SDS011;61519;60.050;18.582;2022-12-01T08:18:41;7.37;;;3.50;;
73283;SDS011;61519;60.050;18.582;2022-12-01T08:21:08;8.18;;;3.70;;
73283;SDS011;61519;60.050;18.582;2022-12-01T08:23:36;7.07;;;3.33;;
73283;SDS011;61519;60.050;18.582;2022-12-01T08:26:03;7.00;;;3.40;;
73283;SDS011;61519;60.050;18.582;2022-12-01T08:28:37;8.93;;;3.50;;
73283;SDS011;61519;60.050;18.582;2022-12-01T08:31:10;5.80;;;2.95;;
73283;SDS011;61519;60.050;18.582;2022-12-01T08:33:37;7.45;;;3.20;;
73283;SDS011;61519;60.050;18.582;2022-12-01T08:36:03;7.60;;;3.43;;
73283;SDS011;61519;60.050;18.582;2022-12-01T08:38:29;6.97;;;2.97;;
73283;SDS011;61519;60.050;18.582;2022-12-01T08:40:58;5.53;;;2.70;;
73283;SDS011;61519;60.050;18.582;2022-12-01T08:43:27;10.23;;;2.40;;
73283;SDS011;61519;60.050;18.582;2022-12-01T08:45:52;8.97;;;3.30;;
73283;SDS011;61519;60.050;18.582;2022-12-01T08:48:18;5.85;;;2.45;;
73283;SDS011;61519;60.050;18.582;2022-12-01T08:50:47;6.23;;;2.53;;
73283;SDS011;61519;60.050;18.582;2022-12-01T08:53:12;8.80;;;2.53;;
73283;SDS011;61519;60.050;18.582;2022-12-01T08:55:38;6.67;;;2.87;;
73283;SDS011;61519;60.050;18.582;2022-12-01T08:58:03;5.67;;;2.47;;
73283;SDS011;61519;60.050;18.582;2022-12-01T09:00:29;8.03;;;3.60;;
73283;SDS011;61519;60.050;18.582;2022-12-01T09:02:54;7.20;;;3.30;;
73283;SDS011;61519;60.050;18.582;2022-12-01T09:05:20;6.20;;;2.90;;
73283;SDS011;61519;60.050;18.582;2022-12-01T09:07:47;6.57;;;3.13;;
73283;SDS011;61519;60.050;18.582;2022-12-01T09:10:36;6.18;;;2.63;;
73283;SDS011;61519;60.050;18.582;2022-12-01T09:13:04;8.97;;;3.23;;
73283;SDS011;61519;60.050;18.582;2022-12-01T09:15:30;8.07;;;3.38;;
73283;SDS011;61519;60.050;18.582;2022-12-01T09:17:55;6.80;;;3.10;;
73283;SDS011;61519;60.050;18.582;2022-12-01T09:20:21;6.87;;;3.90;;
73283;SDS011;61519;60.050;18.582;2022-12-01T09:22:58;5.82;;;2.95;;
73283;SDS011;61519;60.050;18.582;2022-12-01T09:25:24;6.85;;;3.25;;
73283;SDS011;61519;60.050;18.582;2022-12-01T09:27:50;6.83;;;3.60;;
73283;SDS011;61519;60.050;18.582;2022-12-01T09:30:18;6.57;;;2.92;;
73283;SDS011;61519;60.050;18.582;2022-12-01T09:32:44;6.97;;;3.00;;
73283;SDS011;61519;60.050;18.582;2022-12-01T09:35:09;7.00;;;3.35;;
73283;SDS011;61519;60.050;18.582;2022-12-01T09:37:38;6.38;;;3.08;;
73283;SDS011;61519;60.050;18.582;2022-12-01T09:40:04;7.83;;;3.60;;
73283;SDS011;61519;60.050;18.582;2022-12-01T09:42:35;6.75;;;3.35;;
73283;SDS011;61519;60.050;18.582;2022-12-01T09:45:04;6.50;;;3.25;;
73283;SDS011;61519;60.050;18.582;2022-12-01T09:47:33;7.07;;;3.20;;
73283;SDS011;61519;60.050;18.582;2022-12-01T09:50:06;5.60;;;2.87;;
73283;SDS011;61519;60.050;18.582;2022-12-01T09:52:44;6.20;;;2.85;;
73283;SDS011;61519;60.050;18.582;2022-12-01T09:55:14;7.80;;;3.22;;
73283;SDS011;61519;60.050;18.582;2022-12-01T09:57:41;6.72;;;3.38;;
73283;SDS011;61519;60.050;18.582;2022-12-01T10:00:12;6.00;;;3.20;;
73283;SDS011;61519;60.050;18.582;2022-12-01T10:05:17;6.88;;;3.63;;
73283;SDS011;61519;60.050;18.582;2022-12-01T10:07:49;6.25;;;2.97;;
73283;SDS011;61519;60.050;18.582;2022-12-01T10:10:29;7.90;;;3.20;;
73283;SDS011;61519;60.050;18.582;2022-12-01T10:12:58;8.10;;;3.15;;
73283;SDS011;61519;60.050;18.582;2022-12-01T10:15:33;8.50;;;3.53;;
73283;SDS011;61519;60.050;18.582;2022-12-01T10:30:35;7.10;;;3.63;;
73283;SDS011;61519;60.050;18.582;2022-12-01T10:33:40;7.53;;;3.72;;
73283;SDS011;61519;60.050;18.582;2022-12-01T10:50:25;7.47;;;3.13;;
73283;SDS011;61519;60.050;18.582;2022-12-01T11:05:06;7.18;;;3.10;;
73283;SDS011;61519;60.050;18.582;2022-12-01T11:08:20;7.72;;;3.80;;
73283;SDS011;61519;60.050;18.582;2022-12-01T11:11:55;6.15;;;3.08;;
73283;SDS011;61519;60.050;18.582;2022-12-01T11:15:23;6.35;;;3.40;;
73283;SDS011;61519;60.050;18.582;2022-12-01T11:18:01;6.37;;;3.30;;
73283;SDS011;61519;60.050;18.582;2022-12-01T11:20:38;7.63;;;3.92;;
73283;SDS011;61519;60.050;18.582;2022-12-01T11:29:23;6.90;;;3.33;;
73283;SDS011;61519;60.050;18.582;2022-12-01T11:32:34;6.00;;;2.83;;
73283;SDS011;61519;60.050;18.582;2022-12-01T11:35:16;6.93;;;3.28;;
73283;SDS011;61519;60.050;18.582;2022-12-01T11:45:46;6.63;;;2.90;;
73283;SDS011;61519;60.050;18.582;2022-12-01T12:06:28;10.17;;;4.40;;
73283;SDS011;61519;60.050;18.582;2022-12-01T12:32:49;9.88;;;5.22;;
73283;SDS011;61519;60.050;18.582;2022-12-01T12:46:15;9.02;;;4.63;;
73283;SDS011;61519;60.050;18.582;2022-12-01T13:51:14;8.43;;;4.18;;
73283;SDS011;61519;60.050;18.582;2022-12-01T15:05:19;12.25;;;4.20;;
73283;SDS011;61519;60.050;18.582;2022-12-01T15:26:48;7.28;;;3.55;;
73283;SDS011;61519;60.050;18.582;2022-12-01T15:50:23;16.00;;;8.97;;
73283;SDS011;61519;60.050;18.582;2022-12-01T16:31:34;7.80;;;3.50;;
73283;SDS011;61519;60.050;18.582;2022-12-01T16:48:45;8.60;;;3.97;;
73283;SDS011;61519;60.050;18.582;2022-12-01T17:02:51;7.15;;;3.80;;
73283;SDS011;61519;60.050;18.582;2022-12-01T17:57:12;9.63;;;5.28;;
73283;SDS011;61519;60.050;18.582;2022-12-01T18:37:45;12.20;;;4.77;;
73283;SDS011;61519;60.050;18.582;2022-12-01T18:40:16;9.00;;;4.75;;
73283;SDS011;61519;60.050;18.582;2022-12-01T18:43:21;9.30;;;4.85;;
73283;SDS011;61519;60.050;18.582;2022-12-01T18:45:56;8.85;;;4.55;;
73283;SDS011;61519;60.050;18.582;2022-12-01T20:39:45;9.20;;;4.83;;
73283;SDS011;61519;60.050;18.582;2022-12-01T21:06:25;8.63;;;4.45;;
73283;SDS011;61519;60.050;18.582;2022-12-01T22:18:11;8.85;;;3.90;;
73283;SDS011;61519;60.050;18.582;2022-12-01T22:28:29;7.45;;;3.30;;
73283;SDS011;61519;60.050;18.582;2022-12-01T22:46:23;7.85;;;3.35;;
73283;SDS011;61519;60.050;18.582;2022-12-01T22:56:29;8.37;;;3.90;;
73283;SDS011;61519;60.050;18.582;2022-12-01T22:58:58;7.35;;;3.42;;
73283;SDS011;61519;60.050;18.582;2022-12-01T23:01:31;7.72;;;4.05;;
73283;SDS011;61519;60.050;18.582;2022-12-01T23:04:11;8.13;;;3.78;;
73283;SDS011;61519;60.050;18.582;2022-12-01T23:09:47;6.82;;;3.58;;
73283;SDS011;61519;60.050;18.582;2022-12-01T23:12:28;8.82;;;4.20;;
73283;SDS011;61519;60.050;18.582;2022-12-01T23:17:40;7.25;;;3.95;;
73283;SDS011;61519;60.050;18.582;2022-12-01T23:20:28;7.60;;;3.67;;
73283;SDS011;61519;60.050;18.582;2022-12-01T23:22:56;8.43;;;3.67;;
73283;SDS011;61519;60.050;18.582;2022-12-01T23:25:23;9.43;;;4.00;;
73283;SDS011;61519;60.050;18.582;2022-12-01T23:27:50;7.93;;;3.78;;
73283;SDS011;61519;60.050;18.582;2022-12-01T23:30:23;7.80;;;3.70;;
73283;SDS011;61519;60.050;18.582;2022-12-01T23:32:56;7.83;;;3.67;;
73283;SDS011;61519;60.050;18.582;2022-12-01T23:35:27;9.77;;;4.22;;
73283;SDS011;61519;60.050;18.582;2022-12-01T23:37:53;7.95;;;4.13;;
73283;SDS011;61519;60.050;18.582;2022-12-01T23:40:20;9.23;;;4.20;;
73283;SDS011;61519;60.050;18.582;2022-12-01T23:42:50;7.93;;;4.00;;
73283;SDS011;61519;60.050;18.582;2022-12-01T23:45:22;7.10;;;3.60;;
73283;SDS011;61519;60.050;18.582;2022-12-01T23:47:50;7.78;;;4.03;;
73283;SDS011;61519;60.050;18.582;2022-12-01T23:50:18;9.47;;;3.97;;
73283;SDS011;61519;60.050;18.582;2022-12-01T23:52:46;9.60;;;4.00;;
73283;SDS011;61519;60.050;18.582;2022-12-01T23:55:21;9.00;;;4.65;;
73283;SDS011;61519;60.050;18.582;2022-12-01T23:57:49;8.77;;;4.25;;
